Terminal Aerodrome Forecast
Issued by NWS Wilmington, OH

Home | Current Version | Previous Version | Text Only | Print | Product List | Glossary On
Versions: 1 2 3 4 5 6 7 8 9 10 11 12 13 14 15 16 17 18 19 20 21 22 23
000
FTUS41 KILN 282220 AAA
TAFDAY
TAF AMD
KDAY 282220Z 2822/2918 VRB04KT P6SM VCTS SCT040CB BKN250
      TEMPO 2822/2824 2SM TSRA OVC025CB
     FM290000 03005KT P6SM SCT130 BKN250
     FM291400 04004KT P6SM SCT040=

USA.gov is the U.S. government's official web portal to all federal, state and local government web resources and services.